ITY290 EGKK-EDDH
Flight info
| Callsign | ITY290 |
|---|---|
| Flight time | 1h 8m |
| Altitude | 37000 |
| Route | FRANE M604 PAAVO Q295 SOMVA DCT MAVAS DCT PARYD DCT GASTU DCT OSTOR/N0364F230 T904 RIBSO RIBSO7A |
| Aircraft | A320/M-SDE3FGHIRWY/LB1 |
Departure
| Time | 2026-05-06 19:43 |
|---|---|
| Airport | London Gatwick Airport (EGKK) |
Arrival
| Time | 2026-05-06 20:51 |
|---|---|
| Airport | Hamburg Helmut Schmidt Airport (EDDH) |
| Time | Latitude | Longitude | Altitude | Speed | Heading |
|---|---|---|---|---|---|
| 2026-05-06 19:10 | 51.15541 | -0.16535 | 213 ft | 0 kts | 347° |
| 2026-05-06 19:28 | 51.15526 | -0.16530 | 214 ft | 4 kts | 351° |
| 2026-05-06 19:28 | 51.15501 | -0.16521 | 210 ft | 4 kts | 333° |
| 2026-05-06 19:29 | 51.15493 | -0.16515 | 211 ft | 0 kts | 320° |
| 2026-05-06 19:34 | 51.15494 | -0.16520 | 210 ft | 1 kts | 295° |
| 2026-05-06 19:34 | 51.15492 | -0.16558 | 207 ft | 4 kts | 264° |
| 2026-05-06 19:35 | 51.15487 | -0.16609 | 211 ft | 8 kts | 259° |
| 2026-05-06 19:35 | 51.15459 | -0.16744 | 213 ft | 18 kts | 253° |
| 2026-05-06 19:35 | 51.15443 | -0.16865 | 210 ft | 8 kts | 259° |
| 2026-05-06 19:35 | 51.15431 | -0.16949 | 210 ft | 7 kts | 256° |
| 2026-05-06 19:36 | 51.15421 | -0.17024 | 204 ft | 7 kts | 258° |
| 2026-05-06 19:36 | 51.15412 | -0.17090 | 208 ft | 6 kts | 257° |
| 2026-05-06 19:36 | 51.15391 | -0.17178 | 207 ft | 11 kts | 249° |
| 2026-05-06 19:36 | 51.15370 | -0.17284 | 208 ft | 10 kts | 254° |
| 2026-05-06 19:37 | 51.15326 | -0.17380 | 209 ft | 9 kts | 222° |
| 2026-05-06 19:37 | 51.15298 | -0.17468 | 208 ft | 9 kts | 259° |
| 2026-05-06 19:37 | 51.15276 | -0.17613 | 206 ft | 21 kts | 259° |
| 2026-05-06 19:37 | 51.15257 | -0.17752 | 210 ft | 18 kts | 260° |
| 2026-05-06 19:38 | 51.15224 | -0.18002 | 208 ft | 16 kts | 255° |
| 2026-05-06 19:38 | 51.15202 | -0.18167 | 208 ft | 14 kts | 257° |
| 2026-05-06 19:38 | 51.15188 | -0.18311 | 204 ft | 13 kts | 258° |
| 2026-05-06 19:38 | 51.15169 | -0.18440 | 211 ft | 12 kts | 258° |
| 2026-05-06 19:39 | 51.15148 | -0.18594 | 204 ft | 15 kts | 258° |
| 2026-05-06 19:39 | 51.15117 | -0.18806 | 206 ft | 26 kts | 255° |
| 2026-05-06 19:39 | 51.15081 | -0.19091 | 207 ft | 27 kts | 257° |
| 2026-05-06 19:39 | 51.15040 | -0.19388 | 212 ft | 28 kts | 257° |
| 2026-05-06 19:40 | 51.15001 | -0.19669 | 211 ft | 24 kts | 258° |
| 2026-05-06 19:40 | 51.14965 | -0.19927 | 208 ft | 25 kts | 257° |
| 2026-05-06 19:40 | 51.14927 | -0.20205 | 209 ft | 27 kts | 258° |
| 2026-05-06 19:40 | 51.14885 | -0.20504 | 203 ft | 28 kts | 257° |
| 2026-05-06 19:41 | 51.14841 | -0.20820 | 215 ft | 30 kts | 257° |
| 2026-05-06 19:41 | 51.14804 | -0.21088 | 206 ft | 20 kts | 256° |
| 2026-05-06 19:41 | 51.14769 | -0.21288 | 209 ft | 18 kts | 257° |
| 2026-05-06 19:41 | 51.14728 | -0.21395 | 205 ft | 10 kts | 198° |
| 2026-05-06 19:42 | 51.14638 | -0.21340 | 206 ft | 18 kts | 152° |
| 2026-05-06 19:42 | 51.14528 | -0.21229 | 205 ft | 20 kts | 120° |
| 2026-05-06 19:42 | 51.14540 | -0.21020 | 215 ft | 20 kts | 78° |
| 2026-05-06 19:42 | 51.14586 | -0.20694 | 210 ft | 62 kts | 78° |
| 2026-05-06 19:43 | 51.14745 | -0.19536 | 211 ft | 147 kts | 78° |
| 2026-05-06 19:43 | 51.14970 | -0.17852 | 916 ft | 160 kts | 76° |
| 2026-05-06 19:43 | 51.15219 | -0.16053 | 1819 ft | 176 kts | 75° |
| 2026-05-06 19:43 | 51.15500 | -0.14052 | 2363 ft | 196 kts | 75° |
| 2026-05-06 19:44 | 51.15816 | -0.11804 | 2796 ft | 220 kts | 75° |
| 2026-05-06 19:44 | 51.16164 | -0.09291 | 3282 ft | 245 kts | 76° |
| 2026-05-06 19:44 | 51.16540 | -0.06552 | 4030 ft | 259 kts | 76° |
| 2026-05-06 19:44 | 51.16888 | -0.03686 | 4742 ft | 268 kts | 84° |
| 2026-05-06 19:45 | 51.16889 | -0.00707 | 4955 ft | 270 kts | 90° |
| 2026-05-06 19:45 | 51.16833 | 0.02293 | 4993 ft | 272 kts | 91° |
| 2026-05-06 19:45 | 51.16767 | 0.05272 | 4995 ft | 272 kts | 91° |
| 2026-05-06 19:45 | 51.16698 | 0.08279 | 4993 ft | 271 kts | 91° |
| 2026-05-06 19:46 | 51.16632 | 0.11283 | 4988 ft | 272 kts | 91° |
| 2026-05-06 19:46 | 51.16722 | 0.14306 | 5181 ft | 280 kts | 75° |
| 2026-05-06 19:46 | 51.17508 | 0.17125 | 5875 ft | 278 kts | 57° |
| 2026-05-06 19:46 | 51.18594 | 0.19635 | 5977 ft | 273 kts | 52° |
| 2026-05-06 19:47 | 51.19976 | 0.21735 | 6589 ft | 276 kts | 31° |
| 2026-05-06 19:47 | 51.21600 | 0.23365 | 7608 ft | 276 kts | 31° |
| 2026-05-06 19:47 | 51.23233 | 0.25016 | 8553 ft | 279 kts | 30° |
| 2026-05-06 19:47 | 51.24883 | 0.26685 | 9467 ft | 283 kts | 31° |
| 2026-05-06 19:48 | 51.26565 | 0.28386 | 10259 ft | 292 kts | 31° |
| 2026-05-06 19:48 | 51.28357 | 0.30194 | 10572 ft | 316 kts | 31° |
| 2026-05-06 19:48 | 51.30261 | 0.32111 | 11122 ft | 328 kts | 31° |
| 2026-05-06 19:48 | 51.32182 | 0.34047 | 11856 ft | 334 kts | 31° |
| 2026-05-06 19:49 | 51.34158 | 0.36039 | 12697 ft | 338 kts | 30° |
| 2026-05-06 19:49 | 51.36158 | 0.38059 | 13520 ft | 341 kts | 30° |
| 2026-05-06 19:49 | 51.38174 | 0.40098 | 14248 ft | 345 kts | 30° |
| 2026-05-06 19:49 | 51.40219 | 0.42166 | 14936 ft | 349 kts | 31° |
| 2026-05-06 19:50 | 51.42281 | 0.44250 | 15615 ft | 353 kts | 30° |
| 2026-05-06 19:50 | 51.44375 | 0.46366 | 16295 ft | 357 kts | 30° |
| 2026-05-06 19:50 | 51.46488 | 0.48506 | 16965 ft | 361 kts | 31° |
| 2026-05-06 19:50 | 51.48624 | 0.50677 | 17621 ft | 366 kts | 31° |
| 2026-05-06 19:51 | 51.50789 | 0.52880 | 18279 ft | 370 kts | 31° |
| 2026-05-06 19:51 | 51.52977 | 0.55108 | 18849 ft | 374 kts | 31° |
| 2026-05-06 19:51 | 51.55185 | 0.57358 | 19418 ft | 378 kts | 31° |
| 2026-05-06 19:51 | 51.57418 | 0.59637 | 20001 ft | 382 kts | 31° |
| 2026-05-06 19:52 | 51.59644 | 0.61906 | 20567 ft | 385 kts | 31° |
| 2026-05-06 19:52 | 51.61921 | 0.64233 | 21142 ft | 389 kts | 31° |
| 2026-05-06 19:52 | 51.64216 | 0.66583 | 21709 ft | 393 kts | 31° |
| 2026-05-06 19:52 | 51.66536 | 0.68963 | 22274 ft | 397 kts | 31° |
| 2026-05-06 19:53 | 51.68874 | 0.71362 | 22834 ft | 401 kts | 30° |
| 2026-05-06 19:53 | 51.71237 | 0.73781 | 23397 ft | 404 kts | 29° |
| 2026-05-06 19:53 | 51.73742 | 0.75840 | 23873 ft | 405 kts | 19° |
| 2026-05-06 19:53 | 51.76436 | 0.77202 | 24313 ft | 406 kts | 11° |
| 2026-05-06 19:54 | 51.79191 | 0.78323 | 24758 ft | 410 kts | 15° |
| 2026-05-06 19:54 | 51.81815 | 0.80067 | 25197 ft | 415 kts | 26° |
| 2026-05-06 19:54 | 51.84278 | 0.82549 | 25618 ft | 420 kts | 35° |
| 2026-05-06 19:54 | 51.86466 | 0.85715 | 26034 ft | 425 kts | 49° |
| 2026-05-06 19:55 | 51.88029 | 0.89784 | 26430 ft | 430 kts | 67° |
| 2026-05-06 19:55 | 51.88741 | 0.94488 | 26816 ft | 433 kts | 86° |
| 2026-05-06 19:55 | 51.88829 | 0.99381 | 27215 ft | 436 kts | 87° |
| 2026-05-06 19:55 | 51.89126 | 1.04270 | 27617 ft | 438 kts | 81° |
| 2026-05-06 19:56 | 51.89794 | 1.09087 | 28008 ft | 440 kts | 72° |
| 2026-05-06 19:56 | 51.90873 | 1.13741 | 28393 ft | 442 kts | 66° |
| 2026-05-06 19:56 | 51.92097 | 1.18345 | 28581 ft | 449 kts | 65° |
| 2026-05-06 19:56 | 51.93373 | 1.22988 | 28832 ft | 453 kts | 65° |
| 2026-05-06 19:57 | 51.94676 | 1.27655 | 29145 ft | 456 kts | 65° |
| 2026-05-06 19:57 | 51.95985 | 1.32349 | 29465 ft | 458 kts | 65° |
| 2026-05-06 19:57 | 51.96850 | 1.35479 | 29675 ft | 460 kts | 65° |
| 2026-05-06 19:57 | 51.98566 | 1.41780 | 30078 ft | 463 kts | 66° |
| 2026-05-06 19:58 | 51.99854 | 1.46572 | 30332 ft | 465 kts | 66° |
| 2026-05-06 19:58 | 52.01144 | 1.51392 | 30581 ft | 466 kts | 66° |
| 2026-05-06 19:58 | 52.02440 | 1.56247 | 30817 ft | 468 kts | 66° |
| 2026-05-06 19:58 | 52.03312 | 1.59518 | 30978 ft | 469 kts | 66° |
| 2026-05-06 19:59 | 52.04600 | 1.64348 | 31169 ft | 472 kts | 66° |
| 2026-05-06 19:59 | 52.05905 | 1.69246 | 31358 ft | 474 kts | 66° |
| 2026-05-06 19:59 | 52.07217 | 1.74176 | 31541 ft | 475 kts | 66° |
| 2026-05-06 19:59 | 52.08530 | 1.79113 | 31726 ft | 477 kts | 66° |
| 2026-05-06 20:00 | 52.09808 | 1.83936 | 31885 ft | 478 kts | 66° |
| 2026-05-06 20:00 | 52.11123 | 1.88907 | 32049 ft | 479 kts | 66° |
| 2026-05-06 20:00 | 52.12441 | 1.93898 | 32178 ft | 480 kts | 66° |
| 2026-05-06 20:00 | 52.13759 | 1.98899 | 32316 ft | 481 kts | 66° |
| 2026-05-06 20:01 | 52.14990 | 2.03580 | 32453 ft | 481 kts | 66° |
| 2026-05-06 20:01 | 52.16212 | 2.08238 | 32576 ft | 481 kts | 66° |
| 2026-05-06 20:01 | 52.17523 | 2.13254 | 32715 ft | 482 kts | 66° |
| 2026-05-06 20:01 | 52.18835 | 2.18285 | 32847 ft | 482 kts | 66° |
| 2026-05-06 20:02 | 52.20126 | 2.23242 | 32980 ft | 482 kts | 66° |
| 2026-05-06 20:02 | 52.21435 | 2.28277 | 33118 ft | 482 kts | 66° |
| 2026-05-06 20:02 | 52.22734 | 2.33296 | 33324 ft | 480 kts | 66° |
| 2026-05-06 20:02 | 52.24024 | 2.38299 | 33624 ft | 477 kts | 66° |
| 2026-05-06 20:03 | 52.25311 | 2.43294 | 33808 ft | 477 kts | 66° |
| 2026-05-06 20:03 | 52.26597 | 2.48287 | 33969 ft | 478 kts | 66° |
| 2026-05-06 20:03 | 52.27883 | 2.53294 | 34092 ft | 479 kts | 67° |
| 2026-05-06 20:03 | 52.29168 | 2.58313 | 34208 ft | 480 kts | 67° |
| 2026-05-06 20:04 | 52.30445 | 2.63348 | 34326 ft | 480 kts | 69° |
| 2026-05-06 20:04 | 52.31461 | 2.68557 | 34444 ft | 481 kts | 73° |
| 2026-05-06 20:04 | 52.32375 | 2.73749 | 34561 ft | 481 kts | 73° |
| 2026-05-06 20:04 | 52.33302 | 2.79009 | 34678 ft | 482 kts | 73° |
| 2026-05-06 20:05 | 52.34232 | 2.84275 | 34799 ft | 482 kts | 73° |
| 2026-05-06 20:05 | 52.35159 | 2.89547 | 34921 ft | 483 kts | 74° |
| 2026-05-06 20:05 | 52.36084 | 2.94835 | 35052 ft | 483 kts | 74° |
| 2026-05-06 20:05 | 52.37004 | 3.00122 | 35150 ft | 483 kts | 74° |
| 2026-05-06 20:06 | 52.37922 | 3.05412 | 35275 ft | 483 kts | 74° |
| 2026-05-06 20:06 | 52.38836 | 3.10706 | 35399 ft | 483 kts | 74° |
| 2026-05-06 20:06 | 52.39747 | 3.16004 | 35519 ft | 483 kts | 74° |
| 2026-05-06 20:06 | 52.40659 | 3.21298 | 35638 ft | 483 kts | 74° |
| 2026-05-06 20:07 | 52.41570 | 3.26592 | 35763 ft | 483 kts | 74° |
| 2026-05-06 20:07 | 52.42482 | 3.31878 | 35887 ft | 483 kts | 74° |
| 2026-05-06 20:07 | 52.43391 | 3.37157 | 36210 ft | 478 kts | 74° |
| 2026-05-06 20:07 | 52.44290 | 3.42400 | 36424 ft | 477 kts | 74° |
| 2026-05-06 20:08 | 52.45182 | 3.47628 | 36592 ft | 477 kts | 74° |
| 2026-05-06 20:08 | 52.46070 | 3.52865 | 36724 ft | 477 kts | 74° |
| 2026-05-06 20:08 | 52.46955 | 3.58107 | 36890 ft | 477 kts | 74° |
| 2026-05-06 20:08 | 52.47837 | 3.63357 | 36987 ft | 479 kts | 75° |
| 2026-05-06 20:09 | 52.49584 | 3.73785 | 36991 ft | 470 kts | 75° |
| 2026-05-06 20:09 | 52.51301 | 3.84043 | 36996 ft | 464 kts | 75° |
| 2026-05-06 20:10 | 52.52997 | 3.94245 | 36998 ft | 463 kts | 75° |
| 2026-05-06 20:10 | 52.54681 | 4.04434 | 36993 ft | 461 kts | 75° |
| 2026-05-06 20:11 | 52.56348 | 4.14598 | 36992 ft | 460 kts | 75° |
| 2026-05-06 20:11 | 52.57998 | 4.24699 | 36985 ft | 460 kts | 75° |
| 2026-05-06 20:12 | 52.59646 | 4.34880 | 36992 ft | 460 kts | 75° |
| 2026-05-06 20:12 | 52.61281 | 4.45071 | 36986 ft | 461 kts | 75° |
| 2026-05-06 20:13 | 52.62907 | 4.55262 | 36984 ft | 460 kts | 75° |
| 2026-05-06 20:13 | 52.64533 | 4.65467 | 36983 ft | 460 kts | 75° |
| 2026-05-06 20:14 | 52.66151 | 4.75674 | 36982 ft | 460 kts | 75° |
| 2026-05-06 20:14 | 52.67758 | 4.85880 | 36988 ft | 460 kts | 76° |
| 2026-05-06 20:15 | 52.69350 | 4.96109 | 36985 ft | 461 kts | 76° |
| 2026-05-06 20:15 | 52.70928 | 5.06289 | 36980 ft | 461 kts | 76° |
| 2026-05-06 20:16 | 52.72522 | 5.16543 | 36984 ft | 461 kts | 74° |
| 2026-05-06 20:16 | 52.73718 | 5.21426 | 36989 ft | 460 kts | 61° |
| 2026-05-06 20:16 | 52.75235 | 5.26086 | 36978 ft | 460 kts | 62° |
| 2026-05-06 20:17 | 52.78020 | 5.35628 | 36974 ft | 461 kts | 65° |
| 2026-05-06 20:17 | 52.80641 | 5.45309 | 36971 ft | 461 kts | 65° |
| 2026-05-06 20:18 | 52.83288 | 5.54969 | 36979 ft | 462 kts | 65° |
| 2026-05-06 20:18 | 52.85994 | 5.64608 | 36975 ft | 462 kts | 65° |
| 2026-05-06 20:19 | 52.88676 | 5.74181 | 36985 ft | 461 kts | 65° |
| 2026-05-06 20:19 | 52.91363 | 5.83844 | 36981 ft | 461 kts | 65° |
| 2026-05-06 20:20 | 52.94043 | 5.93511 | 36977 ft | 461 kts | 65° |
| 2026-05-06 20:20 | 52.96707 | 6.03192 | 36975 ft | 461 kts | 65° |
| 2026-05-06 20:21 | 52.99345 | 6.12817 | 36962 ft | 461 kts | 65° |
| 2026-05-06 20:21 | 53.01998 | 6.22533 | 36966 ft | 461 kts | 66° |
| 2026-05-06 20:22 | 53.04633 | 6.32244 | 36960 ft | 461 kts | 66° |
| 2026-05-06 20:22 | 53.07266 | 6.41976 | 36962 ft | 461 kts | 66° |
| 2026-05-06 20:23 | 53.09900 | 6.51713 | 36971 ft | 461 kts | 66° |
| 2026-05-06 20:23 | 53.12503 | 6.61398 | 36980 ft | 462 kts | 66° |
| 2026-05-06 20:24 | 53.15118 | 6.71183 | 36967 ft | 462 kts | 66° |
| 2026-05-06 20:24 | 53.17723 | 6.80971 | 36962 ft | 462 kts | 66° |
| 2026-05-06 20:25 | 53.19024 | 6.85876 | 36760 ft | 463 kts | 66° |
| 2026-05-06 20:25 | 53.20321 | 6.90781 | 36500 ft | 462 kts | 66° |
| 2026-05-06 20:25 | 53.21616 | 6.95683 | 36241 ft | 462 kts | 66° |
| 2026-05-06 20:25 | 53.22893 | 7.00525 | 35992 ft | 461 kts | 66° |
| 2026-05-06 20:26 | 53.24185 | 7.05431 | 35743 ft | 461 kts | 66° |
| 2026-05-06 20:26 | 53.25471 | 7.10328 | 35497 ft | 460 kts | 66° |
| 2026-05-06 20:26 | 53.26752 | 7.15222 | 35257 ft | 460 kts | 66° |
| 2026-05-06 20:26 | 53.28032 | 7.20116 | 35016 ft | 460 kts | 66° |
| 2026-05-06 20:27 | 53.29311 | 7.25018 | 34772 ft | 459 kts | 66° |
| 2026-05-06 20:27 | 53.30582 | 7.29900 | 34532 ft | 457 kts | 66° |
| 2026-05-06 20:27 | 53.31846 | 7.34757 | 34213 ft | 454 kts | 66° |
| 2026-05-06 20:27 | 53.33098 | 7.39586 | 33580 ft | 451 kts | 67° |
| 2026-05-06 20:28 | 53.34336 | 7.44385 | 33016 ft | 447 kts | 67° |
| 2026-05-06 20:28 | 53.35560 | 7.49136 | 32438 ft | 443 kts | 67° |
| 2026-05-06 20:28 | 53.36776 | 7.53855 | 31836 ft | 440 kts | 67° |
| 2026-05-06 20:28 | 53.37982 | 7.58544 | 31292 ft | 436 kts | 67° |
| 2026-05-06 20:29 | 53.39177 | 7.63196 | 30742 ft | 433 kts | 67° |
| 2026-05-06 20:29 | 53.40362 | 7.67824 | 30210 ft | 431 kts | 68° |
| 2026-05-06 20:29 | 53.41537 | 7.72424 | 29605 ft | 428 kts | 68° |
| 2026-05-06 20:29 | 53.42685 | 7.76935 | 29095 ft | 423 kts | 68° |
| 2026-05-06 20:30 | 53.43831 | 7.81449 | 28599 ft | 419 kts | 68° |
| 2026-05-06 20:30 | 53.46084 | 7.90346 | 27614 ft | 411 kts | 68° |
| 2026-05-06 20:30 | 53.47194 | 7.94745 | 27146 ft | 407 kts | 68° |
| 2026-05-06 20:31 | 53.48293 | 7.99096 | 26677 ft | 404 kts | 68° |
| 2026-05-06 20:31 | 53.49385 | 8.03427 | 26222 ft | 401 kts | 68° |
| 2026-05-06 20:31 | 53.50466 | 8.07718 | 25768 ft | 398 kts | 67° |
| 2026-05-06 20:31 | 53.51540 | 8.11990 | 25283 ft | 396 kts | 67° |
| 2026-05-06 20:32 | 53.52607 | 8.16242 | 24810 ft | 394 kts | 67° |
| 2026-05-06 20:32 | 53.53667 | 8.20486 | 24317 ft | 393 kts | 67° |
| 2026-05-06 20:32 | 53.54720 | 8.24710 | 23819 ft | 391 kts | 67° |
| 2026-05-06 20:32 | 53.55755 | 8.28878 | 23292 ft | 391 kts | 67° |
| 2026-05-06 20:33 | 53.56811 | 8.33140 | 22734 ft | 388 kts | 67° |
| 2026-05-06 20:33 | 53.57844 | 8.37315 | 22240 ft | 385 kts | 67° |
| 2026-05-06 20:33 | 53.58854 | 8.41406 | 21748 ft | 383 kts | 67° |
| 2026-05-06 20:33 | 53.59873 | 8.45535 | 21248 ft | 381 kts | 67° |
| 2026-05-06 20:34 | 53.60891 | 8.49651 | 20760 ft | 379 kts | 67° |
| 2026-05-06 20:34 | 53.61899 | 8.53737 | 20276 ft | 377 kts | 67° |
| 2026-05-06 20:34 | 53.62900 | 8.57802 | 19790 ft | 375 kts | 67° |
| 2026-05-06 20:34 | 53.63895 | 8.61855 | 19312 ft | 373 kts | 67° |
| 2026-05-06 20:35 | 53.64883 | 8.65886 | 18840 ft | 371 kts | 67° |
| 2026-05-06 20:35 | 53.65864 | 8.69905 | 18504 ft | 367 kts | 67° |
| 2026-05-06 20:35 | 53.66824 | 8.73847 | 18156 ft | 359 kts | 67° |
| 2026-05-06 20:35 | 53.67762 | 8.77711 | 17421 ft | 355 kts | 68° |
| 2026-05-06 20:36 | 53.68684 | 8.81512 | 17080 ft | 345 kts | 68° |
| 2026-05-06 20:36 | 53.69585 | 8.85235 | 16541 ft | 341 kts | 68° |
| 2026-05-06 20:36 | 53.70478 | 8.88924 | 16107 ft | 337 kts | 67° |
| 2026-05-06 20:36 | 53.71351 | 8.92528 | 15608 ft | 334 kts | 66° |
| 2026-05-06 20:37 | 53.72225 | 8.96143 | 15103 ft | 331 kts | 66° |
| 2026-05-06 20:37 | 53.73089 | 8.99725 | 14609 ft | 328 kts | 66° |
| 2026-05-06 20:37 | 53.73944 | 9.03283 | 14122 ft | 325 kts | 67° |
| 2026-05-06 20:37 | 53.74787 | 9.06807 | 13629 ft | 322 kts | 67° |
| 2026-05-06 20:38 | 53.75620 | 9.10288 | 13111 ft | 317 kts | 66° |
| 2026-05-06 20:38 | 53.76434 | 9.13687 | 12645 ft | 305 kts | 67° |
| 2026-05-06 20:38 | 53.77214 | 9.16957 | 12171 ft | 295 kts | 66° |
| 2026-05-06 20:38 | 53.77967 | 9.20125 | 11709 ft | 286 kts | 66° |
| 2026-05-06 20:39 | 53.78478 | 9.23267 | 11256 ft | 278 kts | 87° |
| 2026-05-06 20:39 | 53.78144 | 9.26419 | 10804 ft | 271 kts | 115° |
| 2026-05-06 20:39 | 53.77011 | 9.28883 | 10367 ft | 264 kts | 139° |
| 2026-05-06 20:39 | 53.75571 | 9.30759 | 9906 ft | 259 kts | 143° |
| 2026-05-06 20:40 | 53.74114 | 9.32510 | 9446 ft | 255 kts | 144° |
| 2026-05-06 20:40 | 53.72672 | 9.34209 | 8959 ft | 250 kts | 144° |
| 2026-05-06 20:40 | 53.71253 | 9.35861 | 8490 ft | 245 kts | 144° |
| 2026-05-06 20:40 | 53.69854 | 9.37467 | 8061 ft | 240 kts | 144° |
| 2026-05-06 20:41 | 53.68474 | 9.39024 | 7650 ft | 237 kts | 144° |
| 2026-05-06 20:41 | 53.67104 | 9.40558 | 7255 ft | 236 kts | 144° |
| 2026-05-06 20:41 | 53.65742 | 9.42082 | 6855 ft | 234 kts | 144° |
| 2026-05-06 20:41 | 53.64391 | 9.43598 | 6460 ft | 232 kts | 144° |
| 2026-05-06 20:42 | 53.63062 | 9.45080 | 6065 ft | 231 kts | 144° |
| 2026-05-06 20:42 | 53.61724 | 9.46561 | 5642 ft | 229 kts | 144° |
| 2026-05-06 20:42 | 53.60399 | 9.48007 | 5223 ft | 225 kts | 144° |
| 2026-05-06 20:42 | 53.59087 | 9.49416 | 4823 ft | 223 kts | 144° |
| 2026-05-06 20:43 | 53.57781 | 9.50797 | 4473 ft | 220 kts | 144° |
| 2026-05-06 20:43 | 53.56493 | 9.52159 | 4153 ft | 217 kts | 144° |
| 2026-05-06 20:43 | 53.55218 | 9.53504 | 3779 ft | 216 kts | 144° |
| 2026-05-06 20:43 | 53.53945 | 9.54846 | 3350 ft | 217 kts | 144° |
| 2026-05-06 20:44 | 53.52671 | 9.56184 | 3036 ft | 210 kts | 144° |
| 2026-05-06 20:44 | 53.51481 | 9.57422 | 3030 ft | 195 kts | 144° |
| 2026-05-06 20:44 | 53.50342 | 9.58596 | 3052 ft | 190 kts | 144° |
| 2026-05-06 20:44 | 53.49243 | 9.59726 | 3035 ft | 187 kts | 144° |
| 2026-05-06 20:45 | 53.48192 | 9.60978 | 3024 ft | 182 kts | 126° |
| 2026-05-06 20:45 | 53.47749 | 9.62875 | 3034 ft | 175 kts | 92° |
| 2026-05-06 20:45 | 53.47751 | 9.64917 | 3035 ft | 174 kts | 85° |
| 2026-05-06 20:45 | 53.47824 | 9.66951 | 3033 ft | 175 kts | 82° |
| 2026-05-06 20:46 | 53.48182 | 9.68873 | 3035 ft | 173 kts | 59° |
| 2026-05-06 20:46 | 53.48924 | 9.70462 | 3038 ft | 173 kts | 50° |
| 2026-05-06 20:46 | 53.49703 | 9.72010 | 3035 ft | 174 kts | 50° |
| 2026-05-06 20:46 | 53.50481 | 9.73563 | 3036 ft | 174 kts | 50° |
| 2026-05-06 20:47 | 53.51256 | 9.75114 | 3039 ft | 173 kts | 50° |
| 2026-05-06 20:47 | 53.52033 | 9.76668 | 3027 ft | 174 kts | 50° |
| 2026-05-06 20:47 | 53.52810 | 9.78227 | 2885 ft | 173 kts | 51° |
| 2026-05-06 20:47 | 53.53583 | 9.79778 | 2672 ft | 173 kts | 51° |
| 2026-05-06 20:48 | 53.54351 | 9.81319 | 2456 ft | 177 kts | 51° |
| 2026-05-06 20:48 | 53.55128 | 9.82878 | 2208 ft | 164 kts | 51° |
| 2026-05-06 20:48 | 53.55819 | 9.84265 | 1999 ft | 150 kts | 51° |
| 2026-05-06 20:48 | 53.56458 | 9.85551 | 1805 ft | 138 kts | 52° |
| 2026-05-06 20:49 | 53.57053 | 9.86749 | 1632 ft | 131 kts | 52° |
| 2026-05-06 20:49 | 53.57631 | 9.87912 | 1453 ft | 129 kts | 52° |
| 2026-05-06 20:49 | 53.58206 | 9.89070 | 1264 ft | 129 kts | 51° |
| 2026-05-06 20:49 | 53.58783 | 9.90234 | 1073 ft | 130 kts | 51° |
| 2026-05-06 20:50 | 53.59360 | 9.91397 | 894 ft | 129 kts | 50° |
| 2026-05-06 20:50 | 53.59940 | 9.92567 | 720 ft | 131 kts | 50° |
| 2026-05-06 20:50 | 53.60523 | 9.93742 | 535 ft | 131 kts | 49° |
| 2026-05-06 20:50 | 53.61115 | 9.94929 | 363 ft | 133 kts | 49° |
| 2026-05-06 20:51 | 53.61701 | 9.96118 | 168 ft | 133 kts | 49° |
| 2026-05-06 20:51 | 53.62289 | 9.97313 | 57 ft | 127 kts | 51° |
| 2026-05-06 20:51 | 53.62761 | 9.98268 | 43 ft | 70 kts | 50° |
| 2026-05-06 20:51 | 53.63015 | 9.98779 | 46 ft | 42 kts | 52° |
| 2026-05-06 20:52 | 53.63091 | 9.99135 | 46 ft | 21 kts | 91° |
| 2026-05-06 20:52 | 53.63086 | 9.99294 | 47 ft | 11 kts | 89° |
| 2026-05-06 20:52 | 53.63105 | 9.99400 | 47 ft | 9 kts | 50° |
| 2026-05-06 20:52 | 53.63116 | 9.99424 | 46 ft | 2 kts | 53° |
| 2026-05-06 20:53 | 53.63127 | 9.99453 | 46 ft | 4 kts | 57° |
| 2026-05-06 20:53 | 53.63145 | 9.99500 | 46 ft | 5 kts | 58° |
| 2026-05-06 20:53 | 53.63168 | 9.99559 | 45 ft | 7 kts | 55° |
| 2026-05-06 20:53 | 53.63201 | 9.99627 | 48 ft | 8 kts | 48° |
| 2026-05-06 20:54 | 53.63240 | 9.99699 | 48 ft | 9 kts | 45° |
| 2026-05-06 20:54 | 53.63294 | 9.99787 | 48 ft | 12 kts | 44° |
| 2026-05-06 20:54 | 53.63356 | 9.99911 | 48 ft | 15 kts | 50° |
| 2026-05-06 20:54 | 53.63408 | 10.00015 | 48 ft | 12 kts | 51° |
| 2026-05-06 20:55 | 53.63430 | 10.00109 | 48 ft | 8 kts | 100° |
| 2026-05-06 20:55 | 53.63395 | 10.00154 | 48 ft | 4 kts | 160° |
| 2026-05-06 20:55 | 53.63370 | 10.00160 | 45 ft | 6 kts | 174° |
| 2026-05-06 20:55 | 53.63322 | 10.00167 | 48 ft | 7 kts | 176° |
| 2026-05-06 20:56 | 53.63277 | 10.00176 | 48 ft | 6 kts | 159° |
| 2026-05-06 20:56 | 53.63269 | 10.00212 | 48 ft | 0 kts | 77° |
| 2026-05-06 20:56 | 53.63272 | 10.00216 | 48 ft | 3 kts | 50° |
| 2026-05-06 20:56 | 53.63288 | 10.00251 | 48 ft | 3 kts | 73° |
| 2026-05-06 20:57 | 53.63290 | 10.00284 | 48 ft | 2 kts | 85° |
| 2026-05-06 20:57 | 53.63291 | 10.00307 | 48 ft | 2 kts | 86° |
| 2026-05-06 20:57 | 53.63292 | 10.00321 | 48 ft | 1 kts | 88° |
| 2026-05-06 20:57 | 53.63292 | 10.00358 | 48 ft | 0 kts | 87° |